sensor_id;sensor_type;location;lat;lon;timestamp;temperature;humidity
62589;DHT22;58504;48.770;9.148;2023-06-05T00:00:55;22.90;54.70
62589;DHT22;58504;48.770;9.148;2023-06-05T00:03:22;22.90;54.70
62589;DHT22;58504;48.770;9.148;2023-06-05T00:05:49;22.90;54.70
62589;DHT22;58504;48.770;9.148;2023-06-05T00:08:16;22.90;54.70
62589;DHT22;58504;48.770;9.148;2023-06-05T00:10:43;22.90;54.70
62589;DHT22;58504;48.770;9.148;2023-06-05T00:13:10;22.90;54.70
62589;DHT22;58504;48.770;9.148;2023-06-05T00:15:36;22.90;54.70
62589;DHT22;58504;48.770;9.148;2023-06-05T00:18:05;22.90;54.80
62589;DHT22;58504;48.770;9.148;2023-06-05T00:20:32;22.90;54.70
62589;DHT22;58504;48.770;9.148;2023-06-05T00:22:58;22.90;54.70
62589;DHT22;58504;48.770;9.148;2023-06-05T00:25:25;22.90;54.70
62589;DHT22;58504;48.770;9.148;2023-06-05T00:27:52;22.90;54.70
62589;DHT22;58504;48.770;9.148;2023-06-05T00:30:19;22.90;54.70
62589;DHT22;58504;48.770;9.148;2023-06-05T00:32:45;22.90;54.70
62589;DHT22;58504;48.770;9.148;2023-06-05T00:35:14;22.90;54.70
62589;DHT22;58504;48.770;9.148;2023-06-05T00:37:40;22.90;54.60
62589;DHT22;58504;48.770;9.148;2023-06-05T00:40:09;22.90;54.60
62589;DHT22;58504;48.770;9.148;2023-06-05T00:42:36;22.90;54.60
62589;DHT22;58504;48.770;9.148;2023-06-05T00:45:03;22.90;54.60
62589;DHT22;58504;48.770;9.148;2023-06-05T00:47:30;22.90;54.70
62589;DHT22;58504;48.770;9.148;2023-06-05T00:49:59;22.90;54.60
62589;DHT22;58504;48.770;9.148;2023-06-05T00:52:27;22.90;54.60
62589;DHT22;58504;48.770;9.148;2023-06-05T00:54:54;22.90;54.60
62589;DHT22;58504;48.770;9.148;2023-06-05T00:57:21;22.90;54.60
62589;DHT22;58504;48.770;9.148;2023-06-05T00:59:50;22.90;54.60
62589;DHT22;58504;48.770;9.148;2023-06-05T01:02:18;22.80;54.60
62589;DHT22;58504;48.770;9.148;2023-06-05T01:04:46;22.80;54.60
62589;DHT22;58504;48.770;9.148;2023-06-05T01:07:13;22.80;54.60
62589;DHT22;58504;48.770;9.148;2023-06-05T01:09:43;22.80;54.60
62589;DHT22;58504;48.770;9.148;2023-06-05T01:12:17;22.80;54.50
62589;DHT22;58504;48.770;9.148;2023-06-05T01:14:46;22.80;54.50
62589;DHT22;58504;48.770;9.148;2023-06-05T01:17:13;22.80;54.50
62589;DHT22;58504;48.770;9.148;2023-06-05T01:19:43;22.80;54.50
62589;DHT22;58504;48.770;9.148;2023-06-05T01:22:11;22.80;54.50
62589;DHT22;58504;48.770;9.148;2023-06-05T01:24:40;22.80;54.50
62589;DHT22;58504;48.770;9.148;2023-06-05T01:27:11;22.80;54.50
62589;DHT22;58504;48.770;9.148;2023-06-05T01:29:49;22.80;54.40
62589;DHT22;58504;48.770;9.148;2023-06-05T01:32:22;22.80;54.40
62589;DHT22;58504;48.770;9.148;2023-06-05T01:34:53;22.80;54.50
62589;DHT22;58504;48.770;9.148;2023-06-05T01:37:20;22.80;54.80
62589;DHT22;58504;48.770;9.148;2023-06-05T01:39:53;22.80;54.50
62589;DHT22;58504;48.770;9.148;2023-06-05T01:42:22;22.80;54.50
62589;DHT22;58504;48.770;9.148;2023-06-05T01:44:50;22.80;54.50
62589;DHT22;58504;48.770;9.148;2023-06-05T01:47:17;22.80;54.50
62589;DHT22;58504;48.770;9.148;2023-06-05T01:49:47;22.80;54.50
62589;DHT22;58504;48.770;9.148;2023-06-05T01:52:13;22.80;54.50
62589;DHT22;58504;48.770;9.148;2023-06-05T01:54:40;22.80;54.50
62589;DHT22;58504;48.770;9.148;2023-06-05T01:57:09;22.80;54.60
62589;DHT22;58504;48.770;9.148;2023-06-05T01:59:36;22.80;54.60
62589;DHT22;58504;48.770;9.148;2023-06-05T02:02:03;22.80;54.60
62589;DHT22;58504;48.770;9.148;2023-06-05T02:04:30;22.80;54.60
62589;DHT22;58504;48.770;9.148;2023-06-05T02:06:57;22.70;54.50
62589;DHT22;58504;48.770;9.148;2023-06-05T02:09:28;22.70;54.50
62589;DHT22;58504;48.770;9.148;2023-06-05T02:11:58;22.80;54.60
62589;DHT22;58504;48.770;9.148;2023-06-05T02:14:30;22.70;54.50
62589;DHT22;58504;48.770;9.148;2023-06-05T02:16:58;22.70;54.50
62589;DHT22;58504;48.770;9.148;2023-06-05T02:19:25;22.80;54.60
62589;DHT22;58504;48.770;9.148;2023-06-05T02:21:51;22.70;54.50
62589;DHT22;58504;48.770;9.148;2023-06-05T02:24:18;22.70;54.50
62589;DHT22;58504;48.770;9.148;2023-06-05T02:26:45;22.80;54.60
62589;DHT22;58504;48.770;9.148;2023-06-05T02:29:12;22.70;54.50
62589;DHT22;58504;48.770;9.148;2023-06-05T02:31:40;22.70;54.60
62589;DHT22;58504;48.770;9.148;2023-06-05T02:34:07;22.70;54.50
62589;DHT22;58504;48.770;9.148;2023-06-05T02:36:34;22.70;54.50
62589;DHT22;58504;48.770;9.148;2023-06-05T02:39:01;22.70;54.70
62589;DHT22;58504;48.770;9.148;2023-06-05T02:41:30;22.70;54.70
62589;DHT22;58504;48.770;9.148;2023-06-05T02:43:56;22.70;54.60
62589;DHT22;58504;48.770;9.148;2023-06-05T02:46:25;22.70;54.70
62589;DHT22;58504;48.770;9.148;2023-06-05T02:48:53;22.70;54.70
62589;DHT22;58504;48.770;9.148;2023-06-05T02:51:20;22.70;54.70
62589;DHT22;58504;48.770;9.148;2023-06-05T02:53:46;22.70;54.70
62589;DHT22;58504;48.770;9.148;2023-06-05T02:56:13;22.70;54.70
62589;DHT22;58504;48.770;9.148;2023-06-05T02:58:41;22.70;54.60
62589;DHT22;58504;48.770;9.148;2023-06-05T03:01:09;22.70;54.70
62589;DHT22;58504;48.770;9.148;2023-06-05T03:03:36;22.70;54.60
62589;DHT22;58504;48.770;9.148;2023-06-05T03:06:05;22.70;54.70
62589;DHT22;58504;48.770;9.148;2023-06-05T03:08:32;22.70;54.70
62589;DHT22;58504;48.770;9.148;2023-06-05T03:11:00;22.70;54.70
62589;DHT22;58504;48.770;9.148;2023-06-05T03:13:27;22.60;54.60
62589;DHT22;58504;48.770;9.148;2023-06-05T03:15:53;22.60;54.60
62589;DHT22;58504;48.770;9.148;2023-06-05T03:18:23;22.60;54.60
62589;DHT22;58504;48.770;9.148;2023-06-05T03:20:50;22.60;54.60
62589;DHT22;58504;48.770;9.148;2023-06-05T03:23:21;22.70;54.70
62589;DHT22;58504;48.770;9.148;2023-06-05T03:25:48;22.60;54.60
62589;DHT22;58504;48.770;9.148;2023-06-05T03:28:15;22.70;54.70
62589;DHT22;58504;48.770;9.148;2023-06-05T03:30:42;22.60;54.60
62589;DHT22;58504;48.770;9.148;2023-06-05T03:33:09;22.60;54.60
62589;DHT22;58504;48.770;9.148;2023-06-05T03:35:36;22.60;54.60
62589;DHT22;58504;48.770;9.148;2023-06-05T03:38:03;22.70;54.70
62589;DHT22;58504;48.770;9.148;2023-06-05T03:40:31;22.60;54.60
62589;DHT22;58504;48.770;9.148;2023-06-05T03:42:58;22.60;54.60
62589;DHT22;58504;48.770;9.148;2023-06-05T03:45:24;22.60;54.60
62589;DHT22;58504;48.770;9.148;2023-06-05T03:47:52;22.60;54.60
62589;DHT22;58504;48.770;9.148;2023-06-05T03:50:20;22.60;54.60
62589;DHT22;58504;48.770;9.148;2023-06-05T03:52:46;22.70;54.70
62589;DHT22;58504;48.770;9.148;2023-06-05T03:55:18;22.60;54.50
62589;DHT22;58504;48.770;9.148;2023-06-05T03:57:46;22.60;54.50
62589;DHT22;58504;48.770;9.148;2023-06-05T04:00:13;22.60;54.50
62589;DHT22;58504;48.770;9.148;2023-06-05T04:02:42;22.60;54.50
62589;DHT22;58504;48.770;9.148;2023-06-05T04:05:09;22.70;54.60
62589;DHT22;58504;48.770;9.148;2023-06-05T04:07:37;22.70;54.60
62589;DHT22;58504;48.770;9.148;2023-06-05T04:10:05;22.70;54.60
62589;DHT22;58504;48.770;9.148;2023-06-05T04:12:33;22.70;54.60
62589;DHT22;58504;48.770;9.148;2023-06-05T04:15:01;22.70;54.60
62589;DHT22;58504;48.770;9.148;2023-06-05T04:17:28;22.70;54.50
62589;DHT22;58504;48.770;9.148;2023-06-05T04:19:54;22.70;54.50
62589;DHT22;58504;48.770;9.148;2023-06-05T04:22:21;22.70;54.50
62589;DHT22;58504;48.770;9.148;2023-06-05T04:24:48;22.70;54.40
62589;DHT22;58504;48.770;9.148;2023-06-05T04:27:14;22.70;54.50
62589;DHT22;58504;48.770;9.148;2023-06-05T04:29:42;22.80;54.50
62589;DHT22;58504;48.770;9.148;2023-06-05T04:32:11;22.80;54.50
62589;DHT22;58504;48.770;9.148;2023-06-05T04:34:37;22.80;54.50
62589;DHT22;58504;48.770;9.148;2023-06-05T04:37:05;22.80;54.40
62589;DHT22;58504;48.770;9.148;2023-06-05T04:39:32;22.80;54.30
62589;DHT22;58504;48.770;9.148;2023-06-05T04:41:59;22.80;54.30
62589;DHT22;58504;48.770;9.148;2023-06-05T04:44:26;22.80;54.20
62589;DHT22;58504;48.770;9.148;2023-06-05T04:46:53;22.90;54.20
62589;DHT22;58504;48.770;9.148;2023-06-05T04:49:22;22.90;54.10
62589;DHT22;58504;48.770;9.148;2023-06-05T04:51:49;22.90;54.10
62589;DHT22;58504;48.770;9.148;2023-06-05T04:54:18;22.90;54.10
62589;DHT22;58504;48.770;9.148;2023-06-05T04:56:45;22.90;54.60
62589;DHT22;58504;48.770;9.148;2023-06-05T04:59:15;22.90;54.00
62589;DHT22;58504;48.770;9.148;2023-06-05T05:01:42;23.00;54.10
62589;DHT22;58504;48.770;9.148;2023-06-05T05:04:09;23.00;54.00
62589;DHT22;58504;48.770;9.148;2023-06-05T05:06:38;23.00;54.10
62589;DHT22;58504;48.770;9.148;2023-06-05T05:09:06;23.00;54.00
62589;DHT22;58504;48.770;9.148;2023-06-05T05:11:34;23.00;54.00
62589;DHT22;58504;48.770;9.148;2023-06-05T05:14:01;23.00;53.90
62589;DHT22;58504;48.770;9.148;2023-06-05T05:16:27;23.10;54.50
62589;DHT22;58504;48.770;9.148;2023-06-05T05:18:55;23.10;54.00
62589;DHT22;58504;48.770;9.148;2023-06-05T05:21:22;23.10;53.80
62589;DHT22;58504;48.770;9.148;2023-06-05T05:23:50;23.10;53.80
62589;DHT22;58504;48.770;9.148;2023-06-05T05:26:16;23.10;53.70
62589;DHT22;58504;48.770;9.148;2023-06-05T05:28:43;23.20;53.70
62589;DHT22;58504;48.770;9.148;2023-06-05T05:31:10;23.20;53.60
62589;DHT22;58504;48.770;9.148;2023-06-05T05:33:37;23.20;53.50
62589;DHT22;58504;48.770;9.148;2023-06-05T05:36:04;23.30;53.50
62589;DHT22;58504;48.770;9.148;2023-06-05T05:38:31;23.30;53.40
62589;DHT22;58504;48.770;9.148;2023-06-05T05:40:59;23.30;53.40
62589;DHT22;58504;48.770;9.148;2023-06-05T05:43:26;23.30;53.30
62589;DHT22;58504;48.770;9.148;2023-06-05T05:45:53;23.30;53.30
62589;DHT22;58504;48.770;9.148;2023-06-05T05:48:19;23.40;53.20
62589;DHT22;58504;48.770;9.148;2023-06-05T05:50:46;23.40;53.20
62589;DHT22;58504;48.770;9.148;2023-06-05T05:53:13;23.40;53.10
62589;DHT22;58504;48.770;9.148;2023-06-05T05:55:40;23.40;53.00
62589;DHT22;58504;48.770;9.148;2023-06-05T05:58:08;23.50;53.00
62589;DHT22;58504;48.770;9.148;2023-06-05T06:00:34;23.50;53.00
62589;DHT22;58504;48.770;9.148;2023-06-05T06:03:01;23.60;53.50
62589;DHT22;58504;48.770;9.148;2023-06-05T06:05:28;23.60;52.90
62589;DHT22;58504;48.770;9.148;2023-06-05T06:07:56;23.60;52.80
62589;DHT22;58504;48.770;9.148;2023-06-05T06:10:23;23.60;52.60
62589;DHT22;58504;48.770;9.148;2023-06-05T06:12:52;23.70;52.70
62589;DHT22;58504;48.770;9.148;2023-06-05T06:15:20;23.70;52.50
62589;DHT22;58504;48.770;9.148;2023-06-05T06:17:47;23.70;52.30
62589;DHT22;58504;48.770;9.148;2023-06-05T06:20:13;23.80;52.30
62589;DHT22;58504;48.770;9.148;2023-06-05T06:22:41;23.80;51.80
62589;DHT22;58504;48.770;9.148;2023-06-05T06:25:09;23.90;50.40
62589;DHT22;58504;48.770;9.148;2023-06-05T06:27:37;24.00;50.80
62589;DHT22;58504;48.770;9.148;2023-06-05T06:30:05;24.00;49.90
62589;DHT22;58504;48.770;9.148;2023-06-05T06:32:34;24.10;48.70
62589;DHT22;58504;48.770;9.148;2023-06-05T06:35:01;24.10;48.20
62589;DHT22;58504;48.770;9.148;2023-06-05T06:37:27;24.20;48.60
62589;DHT22;58504;48.770;9.148;2023-06-05T06:39:54;24.20;47.80
62589;DHT22;58504;48.770;9.148;2023-06-05T06:42:21;24.30;46.60
62589;DHT22;58504;48.770;9.148;2023-06-05T06:44:48;24.30;45.80
62589;DHT22;58504;48.770;9.148;2023-06-05T06:47:21;24.30;45.20
62589;DHT22;58504;48.770;9.148;2023-06-05T06:49:49;24.40;45.20
62589;DHT22;58504;48.770;9.148;2023-06-05T06:52:16;24.50;46.50
62589;DHT22;58504;48.770;9.148;2023-06-05T06:54:44;24.50;46.00
62589;DHT22;58504;48.770;9.148;2023-06-05T06:57:10;24.50;45.10
62589;DHT22;58504;48.770;9.148;2023-06-05T06:59:37;24.60;44.90
62589;DHT22;58504;48.770;9.148;2023-06-05T07:02:10;24.60;44.50
62589;DHT22;58504;48.770;9.148;2023-06-05T07:04:37;24.70;45.80
62589;DHT22;58504;48.770;9.148;2023-06-05T07:07:08;24.80;46.90
62589;DHT22;58504;48.770;9.148;2023-06-05T07:09:36;24.80;47.10
62589;DHT22;58504;48.770;9.148;2023-06-05T07:12:03;24.80;47.50
62589;DHT22;58504;48.770;9.148;2023-06-05T07:14:32;24.90;47.10
62589;DHT22;58504;48.770;9.148;2023-06-05T07:16:59;24.90;47.40
62589;DHT22;58504;48.770;9.148;2023-06-05T07:19:26;24.90;47.10
62589;DHT22;58504;48.770;9.148;2023-06-05T07:21:54;25.00;46.90
62589;DHT22;58504;48.770;9.148;2023-06-05T07:24:22;25.10;46.90
62589;DHT22;58504;48.770;9.148;2023-06-05T07:26:51;25.10;47.00
62589;DHT22;58504;48.770;9.148;2023-06-05T07:29:18;25.20;47.10
62589;DHT22;58504;48.770;9.148;2023-06-05T07:31:46;25.30;47.20
62589;DHT22;58504;48.770;9.148;2023-06-05T07:34:13;25.40;47.10
62589;DHT22;58504;48.770;9.148;2023-06-05T07:36:40;25.60;47.20
62589;DHT22;58504;48.770;9.148;2023-06-05T07:39:07;25.70;47.10
62589;DHT22;58504;48.770;9.148;2023-06-05T07:41:35;25.90;46.80
62589;DHT22;58504;48.770;9.148;2023-06-05T07:44:02;26.30;46.30
62589;DHT22;58504;48.770;9.148;2023-06-05T07:46:29;27.00;45.30
62589;DHT22;58504;48.770;9.148;2023-06-05T07:48:55;27.90;43.60
62589;DHT22;58504;48.770;9.148;2023-06-05T07:51:22;28.80;42.10
62589;DHT22;58504;48.770;9.148;2023-06-05T07:53:49;29.50;40.90
62589;DHT22;58504;48.770;9.148;2023-06-05T07:56:16;29.80;39.90
62589;DHT22;58504;48.770;9.148;2023-06-05T07:58:44;29.80;39.60
62589;DHT22;58504;48.770;9.148;2023-06-05T08:01:12;29.70;39.80
62589;DHT22;58504;48.770;9.148;2023-06-05T08:03:41;29.60;39.80
62589;DHT22;58504;48.770;9.148;2023-06-05T08:06:09;29.80;39.80
62589;DHT22;58504;48.770;9.148;2023-06-05T08:08:36;30.10;39.70
62589;DHT22;58504;48.770;9.148;2023-06-05T08:11:02;30.10;39.70
62589;DHT22;58504;48.770;9.148;2023-06-05T08:13:29;29.60;39.90
62589;DHT22;58504;48.770;9.148;2023-06-05T08:15:57;29.20;40.40
62589;DHT22;58504;48.770;9.148;2023-06-05T08:18:24;29.00;41.00
62589;DHT22;58504;48.770;9.148;2023-06-05T08:20:51;28.80;41.40
62589;DHT22;58504;48.770;9.148;2023-06-05T08:23:17;28.60;41.70
62589;DHT22;58504;48.770;9.148;2023-06-05T08:25:44;28.50;41.20
62589;DHT22;58504;48.770;9.148;2023-06-05T08:28:13;28.40;41.80
62589;DHT22;58504;48.770;9.148;2023-06-05T08:30:40;28.40;41.70
62589;DHT22;58504;48.770;9.148;2023-06-05T08:33:08;28.40;39.60
62589;DHT22;58504;48.770;9.148;2023-06-05T08:35:35;28.50;41.20
62589;DHT22;58504;48.770;9.148;2023-06-05T08:38:02;28.60;40.70
62589;DHT22;58504;48.770;9.148;2023-06-05T08:40:29;28.80;40.90
62589;DHT22;58504;48.770;9.148;2023-06-05T08:42:57;29.10;40.40
62589;DHT22;58504;48.770;9.148;2023-06-05T08:45:26;29.60;39.70
62589;DHT22;58504;48.770;9.148;2023-06-05T08:47:54;30.10;38.60
62589;DHT22;58504;48.770;9.148;2023-06-05T08:50:23;31.20;37.10
62589;DHT22;58504;48.770;9.148;2023-06-05T08:52:51;32.90;35.00
62589;DHT22;58504;48.770;9.148;2023-06-05T08:55:19;34.20;32.80
62589;DHT22;58504;48.770;9.148;2023-06-05T08:57:47;35.10;31.20
62589;DHT22;58504;48.770;9.148;2023-06-05T09:00:15;35.70;30.10
62589;DHT22;58504;48.770;9.148;2023-06-05T09:02:42;36.10;29.50
62589;DHT22;58504;48.770;9.148;2023-06-05T09:05:12;36.40;29.20
62589;DHT22;58504;48.770;9.148;2023-06-05T09:07:40;36.70;28.90
62589;DHT22;58504;48.770;9.148;2023-06-05T09:10:21;37.00;28.70
62589;DHT22;58504;48.770;9.148;2023-06-05T09:12:56;37.20;28.60
62589;DHT22;58504;48.770;9.148;2023-06-05T09:15:24;37.40;28.40
62589;DHT22;58504;48.770;9.148;2023-06-05T09:18:08;37.60;28.30
62589;DHT22;58504;48.770;9.148;2023-06-05T09:20:36;37.70;28.30
62589;DHT22;58504;48.770;9.148;2023-06-05T09:23:22;37.80;28.20
62589;DHT22;58504;48.770;9.148;2023-06-05T09:25:50;37.80;28.30
62589;DHT22;58504;48.770;9.148;2023-06-05T09:28:18;37.80;28.10
62589;DHT22;58504;48.770;9.148;2023-06-05T09:30:58;37.70;28.20
62589;DHT22;58504;48.770;9.148;2023-06-05T09:33:27;37.60;28.40
62589;DHT22;58504;48.770;9.148;2023-06-05T09:36:05;37.60;28.90
62589;DHT22;58504;48.770;9.148;2023-06-05T09:38:34;37.50;28.70
62589;DHT22;58504;48.770;9.148;2023-06-05T09:41:03;37.20;28.80
62589;DHT22;58504;48.770;9.148;2023-06-05T09:43:30;36.90;29.00
62589;DHT22;58504;48.770;9.148;2023-06-05T09:45:56;36.60;29.30
62589;DHT22;58504;48.770;9.148;2023-06-05T09:48:23;36.30;29.40
62589;DHT22;58504;48.770;9.148;2023-06-05T09:50:51;35.90;29.70
62589;DHT22;58504;48.770;9.148;2023-06-05T09:53:19;35.50;30.00
62589;DHT22;58504;48.770;9.148;2023-06-05T09:55:48;35.50;30.20
62589;DHT22;58504;48.770;9.148;2023-06-05T09:58:15;35.60;30.30
62589;DHT22;58504;48.770;9.148;2023-06-05T10:00:44;35.80;30.20
62589;DHT22;58504;48.770;9.148;2023-06-05T10:03:14;36.10;30.00
62589;DHT22;58504;48.770;9.148;2023-06-05T10:05:44;36.00;29.50
62589;DHT22;58504;48.770;9.148;2023-06-05T10:08:11;35.70;29.40
62589;DHT22;58504;48.770;9.148;2023-06-05T10:10:39;35.60;30.10
62589;DHT22;58504;48.770;9.148;2023-06-05T10:13:08;35.00;28.70
62589;DHT22;58504;48.770;9.148;2023-06-05T10:15:37;34.60;30.50
62589;DHT22;58504;48.770;9.148;2023-06-05T10:18:04;34.10;29.10
62589;DHT22;58504;48.770;9.148;2023-06-05T10:20:33;33.00;29.40
62589;DHT22;58504;48.770;9.148;2023-06-05T10:23:01;32.80;30.20
62589;DHT22;58504;48.770;9.148;2023-06-05T10:25:30;32.70;31.00
62589;DHT22;58504;48.770;9.148;2023-06-05T10:28:12;32.10;30.60
62589;DHT22;58504;48.770;9.148;2023-06-05T10:31:19;31.20;31.10
62589;DHT22;58504;48.770;9.148;2023-06-05T10:33:55;30.20;32.00
62589;DHT22;58504;48.770;9.148;2023-06-05T10:39:17;29.20;37.70
62589;DHT22;58504;48.770;9.148;2023-06-05T10:41:44;28.90;36.70
62589;DHT22;58504;48.770;9.148;2023-06-05T10:44:12;28.50;35.20
62589;DHT22;58504;48.770;9.148;2023-06-05T10:46:40;28.40;39.30
62589;DHT22;58504;48.770;9.148;2023-06-05T10:49:11;28.20;38.40
62589;DHT22;58504;48.770;9.148;2023-06-05T10:51:40;28.00;38.80
62589;DHT22;58504;48.770;9.148;2023-06-05T10:54:09;28.00;37.10
62589;DHT22;58504;48.770;9.148;2023-06-05T10:56:57;27.80;36.20
62589;DHT22;58504;48.770;9.148;2023-06-05T10:59:26;27.70;35.20
62589;DHT22;58504;48.770;9.148;2023-06-05T11:02:25;27.60;36.30
62589;DHT22;58504;48.770;9.148;2023-06-05T11:05:07;27.50;40.10
62589;DHT22;58504;48.770;9.148;2023-06-05T11:07:36;27.50;41.00
62589;DHT22;58504;48.770;9.148;2023-06-05T11:10:14;27.40;41.40
62589;DHT22;58504;48.770;9.148;2023-06-05T11:13:02;27.20;38.90
62589;DHT22;58504;48.770;9.148;2023-06-05T11:15:41;27.10;36.20
62589;DHT22;58504;48.770;9.148;2023-06-05T11:18:28;27.00;35.30
62589;DHT22;58504;48.770;9.148;2023-06-05T11:20:55;26.90;35.80
62589;DHT22;58504;48.770;9.148;2023-06-05T11:23:22;26.90;35.80
62589;DHT22;58504;48.770;9.148;2023-06-05T11:25:53;26.90;35.40
62589;DHT22;58504;48.770;9.148;2023-06-05T11:28:42;26.80;35.60
62589;DHT22;58504;48.770;9.148;2023-06-05T11:31:11;26.80;36.20
62589;DHT22;58504;48.770;9.148;2023-06-05T11:33:38;26.70;35.10
62589;DHT22;58504;48.770;9.148;2023-06-05T11:36:06;26.60;35.20
62589;DHT22;58504;48.770;9.148;2023-06-05T11:38:34;26.60;37.50
62589;DHT22;58504;48.770;9.148;2023-06-05T11:41:06;26.50;38.30
62589;DHT22;58504;48.770;9.148;2023-06-05T11:43:35;26.50;37.50
62589;DHT22;58504;48.770;9.148;2023-06-05T11:46:07;26.40;38.40
62589;DHT22;58504;48.770;9.148;2023-06-05T11:48:42;26.50;39.90
62589;DHT22;58504;48.770;9.148;2023-06-05T11:51:09;26.50;38.70
62589;DHT22;58504;48.770;9.148;2023-06-05T11:53:44;26.50;38.00
62589;DHT22;58504;48.770;9.148;2023-06-05T11:56:14;26.50;36.10
62589;DHT22;58504;48.770;9.148;2023-06-05T11:58:42;26.50;35.60
62589;DHT22;58504;48.770;9.148;2023-06-05T12:01:14;26.50;36.40
62589;DHT22;58504;48.770;9.148;2023-06-05T12:03:45;26.50;38.00
62589;DHT22;58504;48.770;9.148;2023-06-05T12:06:12;26.40;39.20
62589;DHT22;58504;48.770;9.148;2023-06-05T12:08:40;26.30;38.50
62589;DHT22;58504;48.770;9.148;2023-06-05T12:11:20;26.40;37.70
62589;DHT22;58504;48.770;9.148;2023-06-05T12:13:48;26.40;40.40
62589;DHT22;58504;48.770;9.148;2023-06-05T12:16:16;26.40;42.00
62589;DHT22;58504;48.770;9.148;2023-06-05T12:18:45;26.30;42.80
62589;DHT22;58504;48.770;9.148;2023-06-05T12:21:23;26.30;43.00
62589;DHT22;58504;48.770;9.148;2023-06-05T12:23:51;26.30;42.90
62589;DHT22;58504;48.770;9.148;2023-06-05T12:26:18;26.30;42.20
62589;DHT22;58504;48.770;9.148;2023-06-05T12:28:45;26.30;43.30
62589;DHT22;58504;48.770;9.148;2023-06-05T12:31:32;26.20;42.70
62589;DHT22;58504;48.770;9.148;2023-06-05T12:34:02;26.20;42.90
62589;DHT22;58504;48.770;9.148;2023-06-05T12:36:29;26.20;40.00
62589;DHT22;58504;48.770;9.148;2023-06-05T12:39:01;26.20;42.10
62589;DHT22;58504;48.770;9.148;2023-06-05T12:41:31;26.20;39.70
62589;DHT22;58504;48.770;9.148;2023-06-05T12:44:01;26.20;38.10
62589;DHT22;58504;48.770;9.148;2023-06-05T12:46:30;26.20;40.40
62589;DHT22;58504;48.770;9.148;2023-06-05T12:48:57;26.10;42.00
62589;DHT22;58504;48.770;9.148;2023-06-05T12:51:25;26.20;42.70
62589;DHT22;58504;48.770;9.148;2023-06-05T12:53:52;26.20;41.90
62589;DHT22;58504;48.770;9.148;2023-06-05T12:56:19;26.20;40.20
62589;DHT22;58504;48.770;9.148;2023-06-05T12:58:51;26.20;42.40
62589;DHT22;58504;48.770;9.148;2023-06-05T13:01:18;26.20;42.70
62589;DHT22;58504;48.770;9.148;2023-06-05T13:03:45;26.30;43.40
62589;DHT22;58504;48.770;9.148;2023-06-05T13:06:12;26.30;43.50
62589;DHT22;58504;48.770;9.148;2023-06-05T13:08:41;26.40;43.50
62589;DHT22;58504;48.770;9.148;2023-06-05T13:11:07;26.50;38.00
62589;DHT22;58504;48.770;9.148;2023-06-05T13:13:35;26.50;40.70
62589;DHT22;58504;48.770;9.148;2023-06-05T13:16:03;26.60;35.80
62589;DHT22;58504;48.770;9.148;2023-06-05T13:18:33;26.70;34.70
62589;DHT22;58504;48.770;9.148;2023-06-05T13:21:00;26.70;37.30
62589;DHT22;58504;48.770;9.148;2023-06-05T13:23:27;26.80;40.00
62589;DHT22;58504;48.770;9.148;2023-06-05T13:25:56;26.80;39.70
62589;DHT22;58504;48.770;9.148;2023-06-05T13:28:23;26.80;40.90
62589;DHT22;58504;48.770;9.148;2023-06-05T13:30:50;26.90;37.30
62589;DHT22;58504;48.770;9.148;2023-06-05T13:33:19;26.90;35.90
62589;DHT22;58504;48.770;9.148;2023-06-05T13:35:46;26.90;40.10
62589;DHT22;58504;48.770;9.148;2023-06-05T13:38:13;26.90;40.70
62589;DHT22;58504;48.770;9.148;2023-06-05T13:40:40;26.90;41.20
62589;DHT22;58504;48.770;9.148;2023-06-05T13:43:14;26.90;34.90
62589;DHT22;58504;48.770;9.148;2023-06-05T13:45:41;26.80;37.40
62589;DHT22;58504;48.770;9.148;2023-06-05T13:48:07;26.80;37.40
62589;DHT22;58504;48.770;9.148;2023-06-05T13:50:34;26.80;38.00
62589;DHT22;58504;48.770;9.148;2023-06-05T13:53:01;26.70;39.80
62589;DHT22;58504;48.770;9.148;2023-06-05T13:55:28;26.70;40.60
62589;DHT22;58504;48.770;9.148;2023-06-05T13:57:55;26.80;41.10
62589;DHT22;58504;48.770;9.148;2023-06-05T14:00:28;26.80;41.40
62589;DHT22;58504;48.770;9.148;2023-06-05T14:02:55;26.80;40.70
62589;DHT22;58504;48.770;9.148;2023-06-05T14:05:22;26.70;41.50
62589;DHT22;58504;48.770;9.148;2023-06-05T14:07:49;26.70;41.80
62589;DHT22;58504;48.770;9.148;2023-06-05T14:10:17;26.80;39.20
62589;DHT22;58504;48.770;9.148;2023-06-05T14:12:44;26.70;40.60
62589;DHT22;58504;48.770;9.148;2023-06-05T14:15:11;26.70;39.30
62589;DHT22;58504;48.770;9.148;2023-06-05T14:17:39;26.70;37.50
62589;DHT22;58504;48.770;9.148;2023-06-05T14:20:07;26.70;40.50
62589;DHT22;58504;48.770;9.148;2023-06-05T14:22:34;26.60;39.00
62589;DHT22;58504;48.770;9.148;2023-06-05T14:25:02;26.50;41.00
62589;DHT22;58504;48.770;9.148;2023-06-05T14:27:30;26.50;41.70
62589;DHT22;58504;48.770;9.148;2023-06-05T14:29:56;26.40;42.20
62589;DHT22;58504;48.770;9.148;2023-06-05T14:32:23;26.30;42.70
62589;DHT22;58504;48.770;9.148;2023-06-05T14:34:51;26.30;38.80
62589;DHT22;58504;48.770;9.148;2023-06-05T14:37:18;26.20;39.90
62589;DHT22;58504;48.770;9.148;2023-06-05T14:39:45;26.20;39.70
62589;DHT22;58504;48.770;9.148;2023-06-05T14:42:12;26.10;40.90
62589;DHT22;58504;48.770;9.148;2023-06-05T14:44:38;26.10;41.60
62589;DHT22;58504;48.770;9.148;2023-06-05T14:47:06;26.10;42.10
62589;DHT22;58504;48.770;9.148;2023-06-05T14:49:33;26.00;42.30
62589;DHT22;58504;48.770;9.148;2023-06-05T14:52:01;25.90;42.40
62589;DHT22;58504;48.770;9.148;2023-06-05T14:54:28;25.90;42.60
62589;DHT22;58504;48.770;9.148;2023-06-05T14:56:54;25.90;42.80
62589;DHT22;58504;48.770;9.148;2023-06-05T14:59:21;25.90;43.00
62589;DHT22;58504;48.770;9.148;2023-06-05T15:01:48;25.80;43.10
62589;DHT22;58504;48.770;9.148;2023-06-05T15:04:14;25.80;43.30
62589;DHT22;58504;48.770;9.148;2023-06-05T15:06:41;25.80;43.60
62589;DHT22;58504;48.770;9.148;2023-06-05T15:09:09;25.70;43.80
62589;DHT22;58504;48.770;9.148;2023-06-05T15:11:36;25.70;43.90
62589;DHT22;58504;48.770;9.148;2023-06-05T15:14:03;25.60;44.00
62589;DHT22;58504;48.770;9.148;2023-06-05T15:16:30;25.60;44.10
62589;DHT22;58504;48.770;9.148;2023-06-05T15:18:56;25.60;44.10
62589;DHT22;58504;48.770;9.148;2023-06-05T15:21:23;25.60;44.30
62589;DHT22;58504;48.770;9.148;2023-06-05T15:23:50;25.60;44.50
62589;DHT22;58504;48.770;9.148;2023-06-05T15:26:18;25.60;44.50
62589;DHT22;58504;48.770;9.148;2023-06-05T15:28:45;25.50;44.50
62589;DHT22;58504;48.770;9.148;2023-06-05T15:31:12;25.50;44.60
62589;DHT22;58504;48.770;9.148;2023-06-05T15:33:39;25.50;44.50
62589;DHT22;58504;48.770;9.148;2023-06-05T15:36:07;25.50;44.60
62589;DHT22;58504;48.770;9.148;2023-06-05T15:38:33;25.40;44.50
62589;DHT22;58504;48.770;9.148;2023-06-05T15:41:00;25.40;44.40